sensor_id;sensor_type;location;lat;lon;timestamp;temperature;humidity
39079;DHT22;24829;49.208;12.080;2022-08-04T00:03:47;22.80;75.10
39079;DHT22;24829;49.208;12.080;2022-08-04T00:09:36;22.70;74.60
39079;DHT22;24829;49.208;12.080;2022-08-04T00:12:05;22.70;74.30
39079;DHT22;24829;49.208;12.080;2022-08-04T00:14:33;22.60;74.70
39079;DHT22;24829;49.208;12.080;2022-08-04T00:17:04;22.60;75.00
39079;DHT22;24829;49.208;12.080;2022-08-04T00:19:43;22.60;74.80
39079;DHT22;24829;49.208;12.080;2022-08-04T00:22:10;22.60;75.00
39079;DHT22;24829;49.208;12.080;2022-08-04T00:24:39;22.60;75.30
39079;DHT22;24829;49.208;12.080;2022-08-04T00:27:06;22.50;75.50
39079;DHT22;24829;49.208;12.080;2022-08-04T00:29:33;22.50;76.00
39079;DHT22;24829;49.208;12.080;2022-08-04T00:32:01;22.40;76.80
39079;DHT22;24829;49.208;12.080;2022-08-04T00:34:29;22.40;77.20
39079;DHT22;24829;49.208;12.080;2022-08-04T00:36:56;22.30;77.20
39079;DHT22;24829;49.208;12.080;2022-08-04T00:39:22;22.20;77.20
39079;DHT22;24829;49.208;12.080;2022-08-04T00:47:58;22.00;77.90
39079;DHT22;24829;49.208;12.080;2022-08-04T00:53:42;21.90;78.50
39079;DHT22;24829;49.208;12.080;2022-08-04T00:59:03;21.80;78.80
39079;DHT22;24829;49.208;12.080;2022-08-04T01:01:50;21.80;79.10
39079;DHT22;24829;49.208;12.080;2022-08-04T01:07:21;21.70;79.60
39079;DHT22;24829;49.208;12.080;2022-08-04T01:13:14;21.60;79.90
39079;DHT22;24829;49.208;12.080;2022-08-04T01:16:01;21.50;79.90
39079;DHT22;24829;49.208;12.080;2022-08-04T01:26:25;21.30;80.90
39079;DHT22;24829;49.208;12.080;2022-08-04T01:29:08;21.30;81.30
39079;DHT22;24829;49.208;12.080;2022-08-04T01:31:47;21.20;81.60
39079;DHT22;24829;49.208;12.080;2022-08-04T01:34:16;21.20;81.80
39079;DHT22;24829;49.208;12.080;2022-08-04T01:37:30;21.20;82.00
39079;DHT22;24829;49.208;12.080;2022-08-04T01:39:43;21.20;82.20
39079;DHT22;24829;49.208;12.080;2022-08-04T01:42:17;21.10;82.70
39079;DHT22;24829;49.208;12.080;2022-08-04T01:44:46;21.10;82.70
39079;DHT22;24829;49.208;12.080;2022-08-04T01:47:13;21.10;83.10
39079;DHT22;24829;49.208;12.080;2022-08-04T01:49:41;21.10;83.40
39079;DHT22;24829;49.208;12.080;2022-08-04T01:52:11;21.20;83.60
39079;DHT22;24829;49.208;12.080;2022-08-04T01:54:40;21.20;83.60
39079;DHT22;24829;49.208;12.080;2022-08-04T01:57:08;21.20;83.50
39079;DHT22;24829;49.208;12.080;2022-08-04T01:59:34;21.20;83.60
39079;DHT22;24829;49.208;12.080;2022-08-04T02:02:02;21.10;84.10
39079;DHT22;24829;49.208;12.080;2022-08-04T02:04:27;21.00;84.30
39079;DHT22;24829;49.208;12.080;2022-08-04T02:09:46;20.90;85.10
39079;DHT22;24829;49.208;12.080;2022-08-04T02:18:01;20.70;86.60
39079;DHT22;24829;49.208;12.080;2022-08-04T02:20:29;20.70;86.90
39079;DHT22;24829;49.208;12.080;2022-08-04T02:22:58;20.60;86.80
39079;DHT22;24829;49.208;12.080;2022-08-04T02:25:26;20.60;87.00
39079;DHT22;24829;49.208;12.080;2022-08-04T02:27:57;20.60;87.20
39079;DHT22;24829;49.208;12.080;2022-08-04T02:30:39;20.50;87.20
39079;DHT22;24829;49.208;12.080;2022-08-04T02:33:06;20.60;87.50
39079;DHT22;24829;49.208;12.080;2022-08-04T02:35:35;20.50;87.70
39079;DHT22;24829;49.208;12.080;2022-08-04T02:38:23;20.50;88.40
39079;DHT22;24829;49.208;12.080;2022-08-04T02:40:53;20.50;88.10
39079;DHT22;24829;49.208;12.080;2022-08-04T02:43:24;20.50;88.10
39079;DHT22;24829;49.208;12.080;2022-08-04T02:45:50;20.50;88.50
39079;DHT22;24829;49.208;12.080;2022-08-04T02:48:22;20.50;89.40
39079;DHT22;24829;49.208;12.080;2022-08-04T02:50:48;20.50;89.20
39079;DHT22;24829;49.208;12.080;2022-08-04T02:53:17;20.50;89.30
39079;DHT22;24829;49.208;12.080;2022-08-04T02:55:47;20.60;89.40
39079;DHT22;24829;49.208;12.080;2022-08-04T02:58:14;20.60;89.40
39079;DHT22;24829;49.208;12.080;2022-08-04T03:00:43;20.60;89.40
39079;DHT22;24829;49.208;12.080;2022-08-04T03:06:27;20.60;90.00
39079;DHT22;24829;49.208;12.080;2022-08-04T03:24:09;20.40;90.70
39079;DHT22;24829;49.208;12.080;2022-08-04T03:26:56;20.40;90.90
39079;DHT22;24829;49.208;12.080;2022-08-04T03:47:21;19.90;91.90
39079;DHT22;24829;49.208;12.080;2022-08-04T03:52:50;19.80;92.10
39079;DHT22;24829;49.208;12.080;2022-08-04T03:55:43;19.80;92.30
39079;DHT22;24829;49.208;12.080;2022-08-04T04:07:26;19.50;92.80
39079;DHT22;24829;49.208;12.080;2022-08-04T04:13:15;19.70;92.80
39079;DHT22;24829;49.208;12.080;2022-08-04T04:18:23;19.80;93.00
39079;DHT22;24829;49.208;12.080;2022-08-04T04:26:45;19.70;94.00
39079;DHT22;24829;49.208;12.080;2022-08-04T04:35:10;19.70;94.20
39079;DHT22;24829;49.208;12.080;2022-08-04T04:45:35;20.70;93.60
39079;DHT22;24829;49.208;12.080;2022-08-04T04:48:14;21.50;92.70
39079;DHT22;24829;49.208;12.080;2022-08-04T04:51:04;22.30;91.30
39079;DHT22;24829;49.208;12.080;2022-08-04T04:56:34;23.80;88.10
39079;DHT22;24829;49.208;12.080;2022-08-04T04:59:02;24.40;86.10
39079;DHT22;24829;49.208;12.080;2022-08-04T05:12:36;26.50;79.20
39079;DHT22;24829;49.208;12.080;2022-08-04T05:15:07;26.80;77.80
39079;DHT22;24829;49.208;12.080;2022-08-04T05:17:38;27.10;77.20
39079;DHT22;24829;49.208;12.080;2022-08-04T05:25:36;27.80;75.40
39079;DHT22;24829;49.208;12.080;2022-08-04T05:28:19;27.90;75.00
39079;DHT22;24829;49.208;12.080;2022-08-04T05:30:50;28.00;74.10
39079;DHT22;24829;49.208;12.080;2022-08-04T05:33:33;28.10;73.70
39079;DHT22;24829;49.208;12.080;2022-08-04T05:36:03;28.30;73.20
39079;DHT22;24829;49.208;12.080;2022-08-04T05:38:34;28.40;72.90
39079;DHT22;24829;49.208;12.080;2022-08-04T05:41:02;28.50;72.60
39079;DHT22;24829;49.208;12.080;2022-08-04T05:43:28;28.70;72.00
39079;DHT22;24829;49.208;12.080;2022-08-04T05:45:55;28.80;71.60
39079;DHT22;24829;49.208;12.080;2022-08-04T05:48:23;28.90;71.40
39079;DHT22;24829;49.208;12.080;2022-08-04T05:50:50;29.10;70.80
39079;DHT22;24829;49.208;12.080;2022-08-04T05:53:16;29.20;70.60
39079;DHT22;24829;49.208;12.080;2022-08-04T05:55:44;29.20;70.40
39079;DHT22;24829;49.208;12.080;2022-08-04T05:58:11;29.30;70.20
39079;DHT22;24829;49.208;12.080;2022-08-04T06:00:41;29.30;70.20
39079;DHT22;24829;49.208;12.080;2022-08-04T06:03:08;29.30;70.40
39079;DHT22;24829;49.208;12.080;2022-08-04T06:05:35;29.40;70.10
39079;DHT22;24829;49.208;12.080;2022-08-04T06:08:00;29.50;69.60
39079;DHT22;24829;49.208;12.080;2022-08-04T06:10:28;29.80;69.10
39079;DHT22;24829;49.208;12.080;2022-08-04T06:12:58;30.00;69.10
39079;DHT22;24829;49.208;12.080;2022-08-04T06:15:27;30.20;68.30
39079;DHT22;24829;49.208;12.080;2022-08-04T06:18:00;30.20;68.00
39079;DHT22;24829;49.208;12.080;2022-08-04T06:20:29;30.30;68.00
39079;DHT22;24829;49.208;12.080;2022-08-04T06:22:58;30.30;67.60
39079;DHT22;24829;49.208;12.080;2022-08-04T06:25:30;30.50;67.20
39079;DHT22;24829;49.208;12.080;2022-08-04T06:27:56;30.60;67.00
39079;DHT22;24829;49.208;12.080;2022-08-04T06:30:23;30.70;67.00
39079;DHT22;24829;49.208;12.080;2022-08-04T06:32:52;30.60;67.40
39079;DHT22;24829;49.208;12.080;2022-08-04T06:35:24;30.50;66.90
39079;DHT22;24829;49.208;12.080;2022-08-04T06:37:51;30.30;67.10
39079;DHT22;24829;49.208;12.080;2022-08-04T06:40:21;30.30;66.60
39079;DHT22;24829;49.208;12.080;2022-08-04T06:42:47;30.20;67.00
39079;DHT22;24829;49.208;12.080;2022-08-04T06:45:13;30.00;66.80
39079;DHT22;24829;49.208;12.080;2022-08-04T06:47:41;30.00;67.70
39079;DHT22;24829;49.208;12.080;2022-08-04T06:50:09;30.00;68.00
39079;DHT22;24829;49.208;12.080;2022-08-04T06:52:35;30.20;67.70
39079;DHT22;24829;49.208;12.080;2022-08-04T06:55:01;30.40;67.40
39079;DHT22;24829;49.208;12.080;2022-08-04T06:57:29;30.50;66.60
39079;DHT22;24829;49.208;12.080;2022-08-04T07:00:06;30.50;65.80
39079;DHT22;24829;49.208;12.080;2022-08-04T07:02:50;30.50;66.20
39079;DHT22;24829;49.208;12.080;2022-08-04T07:05:18;30.70;65.90
39079;DHT22;24829;49.208;12.080;2022-08-04T07:07:44;30.80;65.50
39079;DHT22;24829;49.208;12.080;2022-08-04T07:10:11;31.10;65.20
39079;DHT22;24829;49.208;12.080;2022-08-04T07:12:38;31.20;64.00
39079;DHT22;24829;49.208;12.080;2022-08-04T07:15:05;31.20;63.70
39079;DHT22;24829;49.208;12.080;2022-08-04T07:17:36;31.20;63.30
39079;DHT22;24829;49.208;12.080;2022-08-04T07:20:03;31.30;63.30
39079;DHT22;24829;49.208;12.080;2022-08-04T07:22:29;31.50;62.30
39079;DHT22;24829;49.208;12.080;2022-08-04T07:24:57;31.70;61.40
39079;DHT22;24829;49.208;12.080;2022-08-04T07:27:23;31.90;61.20
39079;DHT22;24829;49.208;12.080;2022-08-04T07:29:49;31.90;59.90
39079;DHT22;24829;49.208;12.080;2022-08-04T07:32:16;32.10;59.50
39079;DHT22;24829;49.208;12.080;2022-08-04T07:34:43;32.20;59.00
39079;DHT22;24829;49.208;12.080;2022-08-04T07:37:09;32.20;58.90
39079;DHT22;24829;49.208;12.080;2022-08-04T07:39:35;32.20;58.60
39079;DHT22;24829;49.208;12.080;2022-08-04T07:42:02;32.10;59.10
39079;DHT22;24829;49.208;12.080;2022-08-04T07:44:30;32.00;58.20
39079;DHT22;24829;49.208;12.080;2022-08-04T07:46:56;32.00;58.40
39079;DHT22;24829;49.208;12.080;2022-08-04T07:49:22;32.00;58.10
39079;DHT22;24829;49.208;12.080;2022-08-04T07:51:51;32.10;58.20
39079;DHT22;24829;49.208;12.080;2022-08-04T07:54:17;32.30;58.10
39079;DHT22;24829;49.208;12.080;2022-08-04T07:56:43;32.30;57.50
39079;DHT22;24829;49.208;12.080;2022-08-04T07:59:09;32.50;57.60
39079;DHT22;24829;49.208;12.080;2022-08-04T08:01:35;32.70;56.80
39079;DHT22;24829;49.208;12.080;2022-08-04T08:04:04;33.00;56.00
39079;DHT22;24829;49.208;12.080;2022-08-04T08:06:30;32.90;55.40
39079;DHT22;24829;49.208;12.080;2022-08-04T08:08:55;32.80;55.30
39079;DHT22;24829;49.208;12.080;2022-08-04T08:11:22;32.90;55.50
39079;DHT22;24829;49.208;12.080;2022-08-04T08:13:48;33.00;55.30
39079;DHT22;24829;49.208;12.080;2022-08-04T08:16:14;33.00;55.10
39079;DHT22;24829;49.208;12.080;2022-08-04T08:18:40;33.10;55.30
39079;DHT22;24829;49.208;12.080;2022-08-04T08:21:05;33.10;55.80
39079;DHT22;24829;49.208;12.080;2022-08-04T08:23:33;33.10;55.50
39079;DHT22;24829;49.208;12.080;2022-08-04T08:25:59;33.20;55.00
39079;DHT22;24829;49.208;12.080;2022-08-04T08:28:25;33.40;54.80
39079;DHT22;24829;49.208;12.080;2022-08-04T08:30:51;33.50;55.30
39079;DHT22;24829;49.208;12.080;2022-08-04T08:33:17;33.70;55.00
39079;DHT22;24829;49.208;12.080;2022-08-04T08:35:51;33.80;53.50
39079;DHT22;24829;49.208;12.080;2022-08-04T08:38:25;33.60;53.60
39079;DHT22;24829;49.208;12.080;2022-08-04T08:41:19;33.50;53.20
39079;DHT22;24829;49.208;12.080;2022-08-04T08:44:03;33.60;54.00
39079;DHT22;24829;49.208;12.080;2022-08-04T08:52:03;33.90;53.00
39079;DHT22;24829;49.208;12.080;2022-08-04T09:00:50;34.10;52.20
39079;DHT22;24829;49.208;12.080;2022-08-04T09:11:57;34.10;52.30
39079;DHT22;24829;49.208;12.080;2022-08-04T09:14:52;34.10;52.60
39079;DHT22;24829;49.208;12.080;2022-08-04T09:17:46;34.20;52.60
39079;DHT22;24829;49.208;12.080;2022-08-04T09:23:39;34.20;51.60
39079;DHT22;24829;49.208;12.080;2022-08-04T09:26:33;34.20;52.50
39079;DHT22;24829;49.208;12.080;2022-08-04T09:29:02;34.30;51.90
39079;DHT22;24829;49.208;12.080;2022-08-04T09:31:35;34.30;51.40
39079;DHT22;24829;49.208;12.080;2022-08-04T09:37:16;34.10;51.60
39079;DHT22;24829;49.208;12.080;2022-08-04T09:40:03;33.90;51.60
39079;DHT22;24829;49.208;12.080;2022-08-04T09:42:40;33.90;51.80
39079;DHT22;24829;49.208;12.080;2022-08-04T09:47:56;34.20;51.60
39079;DHT22;24829;49.208;12.080;2022-08-04T09:50:39;34.30;51.40
39079;DHT22;24829;49.208;12.080;2022-08-04T09:53:21;34.20;50.50
39079;DHT22;24829;49.208;12.080;2022-08-04T10:01:15;34.30;50.60
39079;DHT22;24829;49.208;12.080;2022-08-04T10:03:47;34.20;50.90
39079;DHT22;24829;49.208;12.080;2022-08-04T10:06:41;34.00;50.70
39079;DHT22;24829;49.208;12.080;2022-08-04T10:17:00;34.10;50.50
39079;DHT22;24829;49.208;12.080;2022-08-04T10:19:35;34.20;49.90
39079;DHT22;24829;49.208;12.080;2022-08-04T10:22:24;34.10;49.60
39079;DHT22;24829;49.208;12.080;2022-08-04T10:27:40;34.40;50.60
39079;DHT22;24829;49.208;12.080;2022-08-04T10:30:09;34.50;49.70
39079;DHT22;24829;49.208;12.080;2022-08-04T10:32:48;34.60;49.70
39079;DHT22;24829;49.208;12.080;2022-08-04T10:35:18;34.50;49.70
39079;DHT22;24829;49.208;12.080;2022-08-04T10:38:21;34.50;49.00
39079;DHT22;24829;49.208;12.080;2022-08-04T10:46:15;34.60;48.80
39079;DHT22;24829;49.208;12.080;2022-08-04T10:49:01;34.50;48.40
39079;DHT22;24829;49.208;12.080;2022-08-04T10:51:54;34.70;48.50
39079;DHT22;24829;49.208;12.080;2022-08-04T10:56:55;34.90;47.90
39079;DHT22;24829;49.208;12.080;2022-08-04T10:59:32;35.10;47.50
39079;DHT22;24829;49.208;12.080;2022-08-04T11:02:16;35.00;46.20
39079;DHT22;24829;49.208;12.080;2022-08-04T11:04:58;34.80;46.20
39079;DHT22;24829;49.208;12.080;2022-08-04T11:07:29;34.70;46.70
39079;DHT22;24829;49.208;12.080;2022-08-04T11:09:55;34.60;46.70
39079;DHT22;24829;49.208;12.080;2022-08-04T11:12:25;34.40;46.50
39079;DHT22;24829;49.208;12.080;2022-08-04T11:14:58;34.50;47.10
39079;DHT22;24829;49.208;12.080;2022-08-04T11:17:30;34.40;46.20
39079;DHT22;24829;49.208;12.080;2022-08-04T11:22:57;34.50;44.60
39079;DHT22;24829;49.208;12.080;2022-08-04T11:25:28;34.50;44.30
39079;DHT22;24829;49.208;12.080;2022-08-04T11:28:08;34.60;44.50
39079;DHT22;24829;49.208;12.080;2022-08-04T11:30:46;34.70;44.90
39079;DHT22;24829;49.208;12.080;2022-08-04T11:36:09;34.70;44.10
39079;DHT22;24829;49.208;12.080;2022-08-04T11:39:05;34.50;44.10
39079;DHT22;24829;49.208;12.080;2022-08-04T11:41:39;34.40;44.30
39079;DHT22;24829;49.208;12.080;2022-08-04T11:44:06;34.40;44.40
39079;DHT22;24829;49.208;12.080;2022-08-04T11:46:46;34.40;44.60
39079;DHT22;24829;49.208;12.080;2022-08-04T11:49:30;34.50;44.40
39079;DHT22;24829;49.208;12.080;2022-08-04T11:51:59;34.60;43.30
39079;DHT22;24829;49.208;12.080;2022-08-04T11:54:25;34.70;43.60
39079;DHT22;24829;49.208;12.080;2022-08-04T11:56:53;34.80;43.40
39079;DHT22;24829;49.208;12.080;2022-08-04T11:59:21;34.80;44.00
39079;DHT22;24829;49.208;12.080;2022-08-04T12:04:58;35.20;42.70
39079;DHT22;24829;49.208;12.080;2022-08-04T12:10:35;35.20;42.60
39079;DHT22;24829;49.208;12.080;2022-08-04T12:16:35;35.00;42.10
39079;DHT22;24829;49.208;12.080;2022-08-04T12:19:16;35.10;42.50
39079;DHT22;24829;49.208;12.080;2022-08-04T12:21:47;35.20;42.10
39079;DHT22;24829;49.208;12.080;2022-08-04T12:24:20;35.20;42.50
39079;DHT22;24829;49.208;12.080;2022-08-04T12:27:16;35.10;41.50
39079;DHT22;24829;49.208;12.080;2022-08-04T12:29:43;35.10;43.30
39079;DHT22;24829;49.208;12.080;2022-08-04T12:32:36;35.10;42.40
39079;DHT22;24829;49.208;12.080;2022-08-04T12:35:18;35.10;41.90
39079;DHT22;24829;49.208;12.080;2022-08-04T12:37:58;35.10;42.10
39079;DHT22;24829;49.208;12.080;2022-08-04T12:40:41;35.00;42.30
39079;DHT22;24829;49.208;12.080;2022-08-04T12:43:38;35.00;42.20
39079;DHT22;24829;49.208;12.080;2022-08-04T12:46:05;35.00;42.30
39079;DHT22;24829;49.208;12.080;2022-08-04T12:48:34;35.10;42.20
39079;DHT22;24829;49.208;12.080;2022-08-04T12:51:00;35.10;41.80
39079;DHT22;24829;49.208;12.080;2022-08-04T12:53:29;35.10;41.30
39079;DHT22;24829;49.208;12.080;2022-08-04T12:55:57;34.90;41.90
39079;DHT22;24829;49.208;12.080;2022-08-04T12:58:26;34.90;41.90
39079;DHT22;24829;49.208;12.080;2022-08-04T13:00:59;34.90;43.10
39079;DHT22;24829;49.208;12.080;2022-08-04T13:03:29;35.00;41.70
39079;DHT22;24829;49.208;12.080;2022-08-04T13:06:00;34.90;41.80
39079;DHT22;24829;49.208;12.080;2022-08-04T13:08:27;35.00;42.30
39079;DHT22;24829;49.208;12.080;2022-08-04T13:10:56;35.10;41.70
39079;DHT22;24829;49.208;12.080;2022-08-04T13:13:27;35.00;41.40
39079;DHT22;24829;49.208;12.080;2022-08-04T13:15:58;35.10;41.40
39079;DHT22;24829;49.208;12.080;2022-08-04T13:18:29;35.00;40.90
39079;DHT22;24829;49.208;12.080;2022-08-04T13:21:10;34.90;41.00
39079;DHT22;24829;49.208;12.080;2022-08-04T13:23:37;34.80;41.40
39079;DHT22;24829;49.208;12.080;2022-08-04T13:26:03;34.70;41.40
39079;DHT22;24829;49.208;12.080;2022-08-04T13:28:31;34.70;41.40
39079;DHT22;24829;49.208;12.080;2022-08-04T13:31:00;34.70;42.70
39079;DHT22;24829;49.208;12.080;2022-08-04T13:33:31;34.60;41.90
39079;DHT22;24829;49.208;12.080;2022-08-04T13:35:58;34.50;42.50
39079;DHT22;24829;49.208;12.080;2022-08-04T13:38:24;34.50;41.50
39079;DHT22;24829;49.208;12.080;2022-08-04T13:40:51;34.40;41.70
39079;DHT22;24829;49.208;12.080;2022-08-04T13:43:29;34.40;41.20
39079;DHT22;24829;49.208;12.080;2022-08-04T13:46:03;34.30;41.40
39079;DHT22;24829;49.208;12.080;2022-08-04T13:48:35;34.30;41.90
39079;DHT22;24829;49.208;12.080;2022-08-04T13:51:07;34.20;41.90
39079;DHT22;24829;49.208;12.080;2022-08-04T13:53:35;34.30;42.00
39079;DHT22;24829;49.208;12.080;2022-08-04T13:56:03;34.40;42.10
39079;DHT22;24829;49.208;12.080;2022-08-04T13:58:32;34.40;41.90
39079;DHT22;24829;49.208;12.080;2022-08-04T14:01:05;34.40;42.30
39079;DHT22;24829;49.208;12.080;2022-08-04T14:04:01;34.40;41.90
39079;DHT22;24829;49.208;12.080;2022-08-04T14:06:43;34.50;42.00
39079;DHT22;24829;49.208;12.080;2022-08-04T14:09:13;34.60;42.10
39079;DHT22;24829;49.208;12.080;2022-08-04T14:11:42;34.70;41.50
39079;DHT22;24829;49.208;12.080;2022-08-04T14:14:19;34.60;40.80
39079;DHT22;24829;49.208;12.080;2022-08-04T14:17:07;34.40;41.20
39079;DHT22;24829;49.208;12.080;2022-08-04T14:25:31;34.40;41.20
39079;DHT22;24829;49.208;12.080;2022-08-04T14:27:54;34.40;40.90
39079;DHT22;24829;49.208;12.080;2022-08-04T14:32:58;34.30;40.60
39079;DHT22;24829;49.208;12.080;2022-08-04T14:35:24;34.10;40.70
39079;DHT22;24829;49.208;12.080;2022-08-04T14:37:54;34.10;41.50
39079;DHT22;24829;49.208;12.080;2022-08-04T14:40:29;34.10;41.90
39079;DHT22;24829;49.208;12.080;2022-08-04T14:42:55;34.10;41.30
39079;DHT22;24829;49.208;12.080;2022-08-04T14:45:41;34.10;41.40
39079;DHT22;24829;49.208;12.080;2022-08-04T14:48:09;34.10;41.10
39079;DHT22;24829;49.208;12.080;2022-08-04T14:50:45;34.00;41.00
39079;DHT22;24829;49.208;12.080;2022-08-04T14:55:43;33.80;41.10
39079;DHT22;24829;49.208;12.080;2022-08-04T15:00:51;33.60;42.10
39079;DHT22;24829;49.208;12.080;2022-08-04T15:03:18;33.70;41.00
39079;DHT22;24829;49.208;12.080;2022-08-04T15:05:45;33.70;41.20
39079;DHT22;24829;49.208;12.080;2022-08-04T15:08:12;33.80;40.80
39079;DHT22;24829;49.208;12.080;2022-08-04T15:10:39;33.80;41.20
39079;DHT22;24829;49.208;12.080;2022-08-04T15:13:05;33.80;40.70
39079;DHT22;24829;49.208;12.080;2022-08-04T15:15:32;33.80;40.80
39079;DHT22;24829;49.208;12.080;2022-08-04T15:17:58;33.80;41.60
39079;DHT22;24829;49.208;12.080;2022-08-04T15:20:24;33.80;41.80
39079;DHT22;24829;49.208;12.080;2022-08-04T15:22:50;33.80;41.70
39079;DHT22;24829;49.208;12.080;2022-08-04T15:25:15;33.90;41.30
39079;DHT22;24829;49.208;12.080;2022-08-04T15:27:42;33.90;41.20
39079;DHT22;24829;49.208;12.080;2022-08-04T15:30:11;33.90;41.70
39079;DHT22;24829;49.208;12.080;2022-08-04T15:32:42;33.90;41.90
39079;DHT22;24829;49.208;12.080;2022-08-04T15:35:10;33.90;41.70
39079;DHT22;24829;49.208;12.080;2022-08-04T15:40:21;33.80;42.40
39079;DHT22;24829;49.208;12.080;2022-08-04T15:45:47;33.60;42.20
39079;DHT22;24829;49.208;12.080;2022-08-04T15:53:29;33.60;42.30
39079;DHT22;24829;49.208;12.080;2022-08-04T15:55:55;33.50;42.10
39079;DHT22;24829;49.208;12.080;2022-08-04T15:58:22;33.50;42.50
39079;DHT22;24829;49.208;12.080;2022-08-04T16:19:06;33.50;43.40
39079;DHT22;24829;49.208;12.080;2022-08-04T16:21:34;33.40;43.50
39079;DHT22;24829;49.208;12.080;2022-08-04T16:24:08;33.40;43.50
39079;DHT22;24829;49.208;12.080;2022-08-04T16:26:41;33.30;44.20
39079;DHT22;24829;49.208;12.080;2022-08-04T16:32:22;33.30;44.30
39079;DHT22;24829;49.208;12.080;2022-08-04T16:37:35;33.20;44.60
39079;DHT22;24829;49.208;12.080;2022-08-04T16:40:30;33.30;44.60
39079;DHT22;24829;49.208;12.080;2022-08-04T16:43:05;33.20;44.80
39079;DHT22;24829;49.208;12.080;2022-08-04T16:48:18;33.10;44.60
39079;DHT22;24829;49.208;12.080;2022-08-04T16:50:53;33.10;44.80
39079;DHT22;24829;49.208;12.080;2022-08-04T16:53:21;33.10;45.20
39079;DHT22;24829;49.208;12.080;2022-08-04T16:55:49;33.00;44.80
39079;DHT22;24829;49.208;12.080;2022-08-04T16:58:16;33.00;44.90
39079;DHT22;24829;49.208;12.080;2022-08-04T17:00:42;33.00;45.80
39079;DHT22;24829;49.208;12.080;2022-08-04T17:03:10;32.90;45.70
39079;DHT22;24829;49.208;12.080;2022-08-04T17:05:36;32.80;45.70
39079;DHT22;24829;49.208;12.080;2022-08-04T17:08:02;32.70;46.30
39079;DHT22;24829;49.208;12.080;2022-08-04T17:10:38;32.70;46.20
39079;DHT22;24829;49.208;12.080;2022-08-04T17:13:24;32.70;46.70
39079;DHT22;24829;49.208;12.080;2022-08-04T17:15:53;32.50;46.50
39079;DHT22;24829;49.208;12.080;2022-08-04T17:18:22;32.60;46.60
39079;DHT22;24829;49.208;12.080;2022-08-04T17:20:49;32.50;46.90
39079;DHT22;24829;49.208;12.080;2022-08-04T17:23:24;32.40;47.00
39079;DHT22;24829;49.208;12.080;2022-08-04T17:25:55;32.40;46.90
39079;DHT22;24829;49.208;12.080;2022-08-04T17:28:21;32.30;47.00
39079;DHT22;24829;49.208;12.080;2022-08-04T17:30:50;32.30;46.90
39079;DHT22;24829;49.208;12.080;2022-08-04T17:33:16;32.30;47.00
39079;DHT22;24829;49.208;12.080;2022-08-04T17:35:43;32.30;47.30
39079;DHT22;24829;49.208;12.080;2022-08-04T17:38:09;32.10;47.50
39079;DHT22;24829;49.208;12.080;2022-08-04T17:40:49;32.10;47.70
39079;DHT22;24829;49.208;12.080;2022-08-04T17:43:15;32.10;47.70
39079;DHT22;24829;49.208;12.080;2022-08-04T17:45:40;32.00;47.80
39079;DHT22;24829;49.208;12.080;2022-08-04T17:48:09;31.90;47.80
39079;DHT22;24829;49.208;12.080;2022-08-04T17:50:41;31.90;48.00
39079;DHT22;24829;49.208;12.080;2022-08-04T17:53:07;31.80;48.10
39079;DHT22;24829;49.208;12.080;2022-08-04T17:55:44;31.70;48.10
39079;DHT22;24829;49.208;12.080;2022-08-04T17:58:17;31.70;48.20
39079;DHT22;24829;49.208;12.080;2022-08-04T18:00:43;31.70;48.70
39079;DHT22;24829;49.208;12.080;2022-08-04T18:03:21;31.60;48.80
39079;DHT22;24829;49.208;12.080;2022-08-04T18:05:47;31.50;48.90
39079;DHT22;24829;49.208;12.080;2022-08-04T18:08:14;31.50;49.20
39079;DHT22;24829;49.208;12.080;2022-08-04T18:10:42;31.40;49.20
39079;DHT22;24829;49.208;12.080;2022-08-04T18:13:08;31.30;49.30
39079;DHT22;24829;49.208;12.080;2022-08-04T18:15:34;31.20;49.80
39079;DHT22;24829;49.208;12.080;2022-08-04T18:20:41;31.10;50.80
39079;DHT22;24829;49.208;12.080;2022-08-04T18:23:09;31.00;51.10
39079;DHT22;24829;49.208;12.080;2022-08-04T18:25:35;30.90;51.20
39079;DHT22;24829;49.208;12.080;2022-08-04T18:28:04;30.80;51.30
39079;DHT22;24829;49.208;12.080;2022-08-04T18:30:30;30.70;51.70
39079;DHT22;24829;49.208;12.080;2022-08-04T18:32:56;30.60;51.70
39079;DHT22;24829;49.208;12.080;2022-08-04T18:35:22;30.60;51.70
39079;DHT22;24829;49.208;12.080;2022-08-04T18:37:48;30.50;51.70
39079;DHT22;24829;49.208;12.080;2022-08-04T18:40:17;30.40;52.60
39079;DHT22;24829;49.208;12.080;2022-08-04T18:42:43;30.40;52.10
39079;DHT22;24829;49.208;12.080;2022-08-04T18:45:08;30.30;52.00
39079;DHT22;24829;49.208;12.080;2022-08-04T18:47:35;30.20;52.20
39079;DHT22;24829;49.208;12.080;2022-08-04T18:50:02;30.10;52.40
39079;DHT22;24829;49.208;12.080;2022-08-04T18:52:27;30.10;52.40
39079;DHT22;24829;49.208;12.080;2022-08-04T18:54:53;30.00;53.30
39079;DHT22;24829;49.208;12.080;2022-08-04T18:57:24;29.90;53.10
39079;DHT22;24829;49.208;12.080;2022-08-04T18:59:50;29.90;53.30
39079;DHT22;24829;49.208;12.080;2022-08-04T19:02:16;29.80;53.70
39079;DHT22;24829;49.208;12.080;2022-08-04T19:04:42;29.80;54.40
39079;DHT22;24829;49.208;12.080;2022-08-04T19:07:09;29.70;54.70
39079;DHT22;24829;49.208;12.080;2022-08-04T19:09:39;29.60;54.50
39079;DHT22;24829;49.208;12.080;2022-08-04T19:12:05;29.50;54.70
39079;DHT22;24829;49.208;12.080;2022-08-04T19:14:30;29.40;55.10
39079;DHT22;24829;49.208;12.080;2022-08-04T19:16:56;29.30;55.30
39079;DHT22;24829;49.208;12.080;2022-08-04T19:19:22;29.20;56.20
39079;DHT22;24829;49.208;12.080;2022-08-04T19:21:48;29.10;55.70
39079;DHT22;24829;49.208;12.080;2022-08-04T19:24:14;29.10;56.60
39079;DHT22;24829;49.208;12.080;2022-08-04T19:26:40;29.00;56.10
39079;DHT22;24829;49.208;12.080;2022-08-04T19:29:05;28.90;56.20
39079;DHT22;24829;49.208;12.080;2022-08-04T19:31:31;28.90;56.20
39079;DHT22;24829;49.208;12.080;2022-08-04T19:33:57;28.80;56.30
39079;DHT22;24829;49.208;12.080;2022-08-04T19:36:24;28.80;55.80
39079;DHT22;24829;49.208;12.080;2022-08-04T19:38:51;28.60;56.20
39079;DHT22;24829;49.208;12.080;2022-08-04T19:41:17;28.60;56.00
39079;DHT22;24829;49.208;12.080;2022-08-04T19:43:43;28.60;56.10
39079;DHT22;24829;49.208;12.080;2022-08-04T19:46:11;28.60;56.70
39079;DHT22;24829;49.208;12.080;2022-08-04T19:48:36;28.50;56.50
39079;DHT22;24829;49.208;12.080;2022-08-04T19:51:02;28.40;56.40
39079;DHT22;24829;49.208;12.080;2022-08-04T19:53:27;28.40;56.40
39079;DHT22;24829;49.208;12.080;2022-08-04T19:55:53;28.30;57.10